Time;durP1;ratioP1;P1;durP2;ratioP2;P2;SDS_P1;SDS_P2;PMS_P1;PMS_P2;Temp;Humidity;BMP_temperature;BMP_pressure;BME280_temperature;BME280_humidity;BME280_pressure;Samples;Min_cycle;Max_cycle;Signal;HPM_P1;HPM_P2
2021/04/08 00:00:40;;;;;;;5.13;4.30;;;1.40;99.90;;;;;;5064951;28;20847;-67
2021/04/08 00:03:07;;;;;;;4.20;3.65;;;1.40;99.90;;;;;;5062888;28;20209;-68
2021/04/08 00:05:33;;;;;;;5.25;3.70;;;1.40;99.90;;;;;;5064484;28;20204;-68
2021/04/08 00:08:00;;;;;;;5.43;4.63;;;1.30;99.90;;;;;;5064442;28;20290;-68
2021/04/08 00:10:26;;;;;;;5.00;4.07;;;1.30;99.90;;;;;;5066266;28;20352;-68
2021/04/08 00:12:52;;;;;;;9.45;4.65;;;1.30;99.90;;;;;;5063658;28;20575;-68
2021/04/08 00:15:19;;;;;;;5.47;4.97;;;1.30;99.90;;;;;;5064869;28;20215;-67
2021/04/08 00:17:45;;;;;;;6.10;4.50;;;1.40;99.90;;;;;;5064388;28;20220;-68
2021/04/08 00:20:16;;;;;;;5.88;4.85;;;1.40;99.90;;;;;;5064927;28;20219;-68
2021/04/08 00:22:42;;;;;;;5.47;4.93;;;1.30;99.90;;;;;;5064051;28;20208;-68
2021/04/08 00:25:10;;;;;;;6.70;4.90;;;1.30;99.90;;;;;;5065462;28;20266;-67
2021/04/08 00:27:36;;;;;;;6.60;4.07;;;1.20;99.90;;;;;;5065463;28;20228;-68
2021/04/08 00:30:03;;;;;;;4.32;3.92;;;1.20;99.90;;;;;;5067207;28;20208;-68
2021/04/08 00:32:29;;;;;;;7.22;4.32;;;1.10;99.90;;;;;;5063138;28;20219;-67
2021/04/08 00:34:56;;;;;;;4.72;4.07;;;1.10;99.90;;;;;;5065973;28;20764;-68
2021/04/08 00:37:23;;;;;;;4.97;4.45;;;1.10;99.90;;;;;;5068557;28;20196;-67
2021/04/08 00:39:49;;;;;;;4.63;3.90;;;1.10;99.90;;;;;;5067887;28;20682;-68
2021/04/08 00:42:16;;;;;;;6.93;4.55;;;1.10;99.90;;;;;;5067342;28;20424;-70
2021/04/08 00:44:42;;;;;;;8.48;5.00;;;1.10;99.90;;;;;;5069986;28;20208;-70
2021/04/08 00:47:08;;;;;;;8.23;5.40;;;1.10;99.90;;;;;;5068417;28;20200;-70
2021/04/08 00:49:35;;;;;;;6.88;4.70;;;1.00;99.90;;;;;;5069660;28;20224;-69
2021/04/08 00:52:01;;;;;;;8.10;4.20;;;1.00;99.90;;;;;;5069067;28;20207;-69
2021/04/08 00:54:29;;;;;;;6.53;4.45;;;1.00;99.90;;;;;;5070718;28;20889;-69
2021/04/08 00:56:55;;;;;;;6.25;5.20;;;1.00;99.90;;;;;;5070400;28;20220;-69
2021/04/08 00:59:21;;;;;;;7.72;4.63;;;0.90;99.90;;;;;;5069651;28;20273;-69
2021/04/08 01:01:48;;;;;;;8.93;4.70;;;0.90;99.90;;;;;;5068869;28;20208;-69
2021/04/08 01:04:14;;;;;;;6.45;4.50;;;0.90;99.90;;;;;;5069433;28;20203;-69
2021/04/08 01:06:41;;;;;;;6.25;4.75;;;0.90;99.90;;;;;;5069256;28;20321;-70
2021/04/08 01:09:07;;;;;;;6.55;4.88;;;0.90;99.90;;;;;;5069094;28;20219;-70
2021/04/08 01:11:34;;;;;;;7.22;5.25;;;0.90;99.90;;;;;;5073165;28;20577;-70
2021/04/08 01:14:01;;;;;;;5.90;5.30;;;0.90;99.90;;;;;;5068725;28;20572;-70
2021/04/08 01:16:35;;;;;;;8.43;4.53;;;0.80;99.90;;;;;;5070153;28;20197;-70
2021/04/08 01:19:24;;;;;;;7.97;5.03;;;0.80;99.90;;;;;;5069706;28;20224;-70
2021/04/08 01:21:56;;;;;;;6.05;4.85;;;0.80;99.90;;;;;;5068994;28;20207;-69
2021/04/08 01:24:44;;;;;;;8.00;5.10;;;0.70;99.90;;;;;;5070412;28;20246;-70
2021/04/08 01:27:29;;;;;;;6.00;5.35;;;0.80;99.90;;;;;;5069966;28;20211;-69
2021/04/08 01:30:39;;;;;;;5.70;5.10;;;0.80;99.90;;;;;;5069550;28;20196;-70
2021/04/08 01:33:10;;;;;;;6.55;5.00;;;0.80;99.90;;;;;;5061844;28;20224;-70
2021/04/08 01:35:40;;;;;;;8.82;5.43;;;0.90;99.90;;;;;;5069437;28;20234;-70
2021/04/08 01:38:10;;;;;;;7.93;5.03;;;0.80;99.90;;;;;;5069081;28;20282;-69
2021/04/08 01:40:38;;;;;;;5.50;5.00;;;0.90;99.90;;;;;;5069491;28;20204;-69
2021/04/08 01:43:07;;;;;;;7.15;5.20;;;0.90;99.90;;;;;;5067876;28;20196;-70
2021/04/08 01:45:35;;;;;;;4.47;4.07;;;0.90;99.90;;;;;;5069258;28;20205;-69
2021/04/08 01:48:04;;;;;;;5.75;4.72;;;1.00;99.90;;;;;;5068409;28;20235;-69
2021/04/08 01:50:31;;;;;;;5.38;4.40;;;1.00;99.90;;;;;;5069105;28;20690;-69
2021/04/08 01:52:59;;;;;;;5.70;5.05;;;1.00;99.90;;;;;;5067413;28;20209;-69
2021/04/08 01:55:29;;;;;;;6.90;4.75;;;1.10;99.90;;;;;;5069247;28;20204;-69
2021/04/08 01:57:56;;;;;;;5.43;4.53;;;1.10;99.90;;;;;;5068740;28;20230;-69
2021/04/08 02:00:23;;;;;;;11.13;4.85;;;1.10;99.90;;;;;;5069229;28;20262;-69
2021/04/08 02:02:54;;;;;;;5.60;4.47;;;1.20;99.90;;;;;;5067665;28;20667;-69
2021/04/08 02:05:23;;;;;;;4.82;3.55;;;1.20;99.90;;;;;;5069220;28;20664;-69
2021/04/08 02:07:52;;;;;;;7.05;3.60;;;1.30;99.90;;;;;;5068746;28;20247;-69
2021/04/08 02:10:19;;;;;;;4.65;3.70;;;1.30;99.90;;;;;;5068491;28;20256;-69
2021/04/08 02:12:47;;;;;;;5.63;4.15;;;1.30;99.90;;;;;;5066864;28;20281;-69
2021/04/08 02:15:17;;;;;;;3.40;3.10;;;1.40;99.90;;;;;;5068828;28;20204;-69
2021/04/08 02:17:45;;;;;;;4.80;3.10;;;1.30;99.90;;;;;;5068441;28;20224;-69
2021/04/08 02:20:16;;;;;;;5.45;3.30;;;1.40;99.90;;;;;;5068444;28;20223;-69
2021/04/08 02:22:45;;;;;;;3.80;3.40;;;1.40;99.90;;;;;;5066738;28;21315;-69
2021/04/08 02:25:13;;;;;;;4.03;3.25;;;1.40;99.90;;;;;;5068656;28;20204;-69
2021/04/08 02:27:40;;;;;;;4.30;3.63;;;1.50;99.90;;;;;;5068638;28;20225;-69
2021/04/08 02:30:09;;;;;;;5.78;3.28;;;1.50;99.90;;;;;;5068020;28;20208;-70
2021/04/08 02:32:37;;;;;;;4.68;4.18;;;1.50;99.90;;;;;;5067008;28;20678;-69
2021/04/08 02:35:06;;;;;;;3.42;2.92;;;1.50;99.90;;;;;;5067777;28;20196;-70
2021/04/08 02:37:33;;;;;;;3.42;3.13;;;1.50;99.90;;;;;;5068526;28;20227;-69
2021/04/08 02:39:59;;;;;;;3.95;3.05;;;1.50;99.90;;;;;;5068125;28;20208;-69
2021/04/08 02:42:26;;;;;;;5.35;3.17;;;1.50;99.90;;;;;;5066285;28;20200;-69
2021/04/08 02:44:52;;;;;;;4.05;3.17;;;1.50;99.90;;;;;;5068392;28;20204;-69
2021/04/08 02:47:18;;;;;;;7.57;3.58;;;1.50;99.90;;;;;;5068421;28;20204;-69
2021/04/08 02:49:45;;;;;;;3.30;3.00;;;1.40;99.90;;;;;;5067504;28;20200;-69
2021/04/08 02:52:14;;;;;;;4.72;2.95;;;1.40;99.90;;;;;;5066584;28;20205;-69
2021/04/08 02:54:47;;;;;;;4.50;2.70;;;1.40;99.90;;;;;;5067781;28;20200;-69
2021/04/08 02:57:18;;;;;;;4.18;3.00;;;1.40;99.90;;;;;;5068095;28;20204;-70
2021/04/08 02:59:51;;;;;;;6.53;3.17;;;1.40;99.90;;;;;;5066588;28;20213;-70
2021/04/08 03:02:20;;;;;;;3.22;2.78;;;1.50;99.90;;;;;;5066603;28;20253;-69
2021/04/08 03:04:48;;;;;;;4.47;3.25;;;1.50;99.90;;;;;;5068012;28;20694;-70
2021/04/08 03:07:18;;;;;;;4.45;3.03;;;1.50;99.90;;;;;;5068043;28;20249;-71
2021/04/08 03:09:47;;;;;;;4.13;2.75;;;1.50;99.90;;;;;;5067294;28;20212;-70
2021/04/08 03:12:15;;;;;;;3.15;2.50;;;1.50;99.90;;;;;;5066464;28;20212;-70
2021/04/08 03:14:45;;;;;;;5.75;3.10;;;1.50;99.90;;;;;;5067836;28;20744;-70
2021/04/08 03:17:13;;;;;;;2.97;2.67;;;1.50;99.90;;;;;;5068753;28;20415;-69
2021/04/08 03:19:40;;;;;;;6.10;3.15;;;1.50;99.90;;;;;;5067014;28;20323;-70
2021/04/08 03:22:10;;;;;;;5.47;2.70;;;1.50;99.90;;;;;;5066059;28;20604;-69
2021/04/08 03:24:37;;;;;;;3.10;2.80;;;1.40;99.90;;;;;;5067765;28;20200;-70
2021/04/08 03:27:07;;;;;;;3.30;3.00;;;1.40;99.90;;;;;;5067940;28;20200;-68
2021/04/08 03:29:33;;;;;;;5.45;3.10;;;1.40;99.90;;;;;;5066825;28;20608;-69
2021/04/08 03:32:01;;;;;;;3.28;2.70;;;1.40;99.90;;;;;;5065737;28;20258;-69
2021/04/08 03:34:27;;;;;;;4.00;3.13;;;1.30;99.90;;;;;;5067591;28;20206;-69
2021/04/08 03:36:54;;;;;;;5.63;3.08;;;1.30;99.90;;;;;;5067877;28;20210;-70
2021/04/08 03:39:21;;;;;;;4.25;3.10;;;1.30;99.90;;;;;;5067502;28;20221;-70
2021/04/08 03:41:49;;;;;;;4.53;2.63;;;1.30;99.90;;;;;;5066052;28;20204;-71
2021/04/08 03:44:17;;;;;;;4.10;2.80;;;1.30;99.90;;;;;;5067385;28;20517;-70
2021/04/08 03:46:45;;;;;;;4.32;2.88;;;1.40;99.90;;;;;;5067367;28;20671;-70
2021/04/08 03:49:14;;;;;;;3.17;2.88;;;1.40;99.90;;;;;;5057285;28;20654;-70
2021/04/08 03:51:41;;;;;;;2.28;2.00;;;1.40;99.90;;;;;;5066873;28;20209;-71
2021/04/08 03:54:10;;;;;;;2.38;2.17;;;1.40;99.90;;;;;;5066446;28;20200;-70
2021/04/08 03:56:40;;;;;;;3.40;2.55;;;1.40;99.90;;;;;;5067679;28;20208;-70
2021/04/08 03:59:07;;;;;;;2.80;2.60;;;1.40;99.90;;;;;;5066928;28;20699;-70
2021/04/08 04:01:36;;;;;;;2.70;2.50;;;1.30;99.90;;;;;;5067096;28;20208;-71
2021/04/08 04:04:04;;;;;;;3.83;2.67;;;1.40;99.90;;;;;;5065967;28;20566;-71
2021/04/08 04:06:31;;;;;;;3.45;2.38;;;1.30;99.90;;;;;;5067268;28;20206;-71
2021/04/08 04:08:58;;;;;;;5.55;3.10;;;1.30;99.90;;;;;;5067040;28;20232;-71
2021/04/08 04:11:25;;;;;;;3.20;2.90;;;1.30;99.90;;;;;;5069440;28;20207;-70
2021/04/08 04:13:52;;;;;;;3.75;2.63;;;1.30;99.90;;;;;;5065457;28;20204;-71
2021/04/08 04:16:20;;;;;;;4.35;2.42;;;1.20;99.90;;;;;;5069677;28;20578;-71
2021/04/08 04:18:47;;;;;;;7.10;2.90;;;1.20;99.90;;;;;;5072482;28;20228;-71
2021/04/08 04:21:13;;;;;;;4.97;2.60;;;1.30;99.90;;;;;;5070687;28;20687;-70
2021/04/08 04:23:39;;;;;;;6.07;2.95;;;1.30;99.90;;;;;;5132705;22;20204;-71
2021/04/08 04:26:05;;;;;;;6.68;2.55;;;1.30;99.90;;;;;;5050593;28;20339;-71
2021/04/08 04:28:31;;;;;;;4.20;2.22;;;1.20;99.90;;;;;;5049352;28;20225;-72
2021/04/08 04:30:58;;;;;;;3.85;2.70;;;1.20;99.90;;;;;;5050081;28;20204;-71
2021/04/08 04:33:24;;;;;;;6.00;3.05;;;1.20;99.90;;;;;;5047393;28;20224;-71
2021/04/08 04:35:53;;;;;;;4.47;2.95;;;1.20;99.90;;;;;;5049631;28;20201;-73
2021/04/08 04:38:20;;;;;;;4.30;2.53;;;1.20;99.90;;;;;;5047112;28;20255;-73
2021/04/08 04:40:46;;;;;;;4.80;2.60;;;1.20;99.90;;;;;;5048702;28;20208;-73
2021/04/08 04:43:12;;;;;;;7.45;2.63;;;1.10;99.90;;;;;;5050473;28;20205;-73
2021/04/08 04:45:38;;;;;;;3.92;3.03;;;1.10;99.90;;;;;;5049304;28;20201;-72
2021/04/08 04:48:05;;;;;;;4.30;2.83;;;1.20;99.90;;;;;;5049371;28;20860;-73
2021/04/08 04:50:31;;;;;;;3.05;2.75;;;1.20;99.90;;;;;;5049737;28;20201;-73
2021/04/08 04:52:58;;;;;;;4.38;2.90;;;1.20;99.90;;;;;;5048319;28;20216;-72
2021/04/08 04:55:25;;;;;;;5.07;3.10;;;1.10;99.90;;;;;;5048827;28;20228;-72
2021/04/08 04:57:51;;;;;;;3.47;3.10;;;1.20;99.90;;;;;;5049573;28;20224;-73
2021/04/08 05:00:18;;;;;;;3.72;3.08;;;1.10;99.90;;;;;;5049431;28;20232;-73
2021/04/08 05:02:44;;;;;;;4.95;2.90;;;1.00;99.90;;;;;;5045738;28;20747;-73
2021/04/08 05:05:12;;;;;;;4.55;3.03;;;1.00;99.90;;;;;;5049203;28;20205;-73
2021/04/08 05:07:38;;;;;;;5.95;3.20;;;1.00;99.90;;;;;;5049488;28;20228;-73
2021/04/08 05:10:07;;;;;;;3.67;2.55;;;1.10;99.90;;;;;;5048802;28;20215;-73
2021/04/08 05:12:33;;;;;;;3.88;2.85;;;1.10;99.90;;;;;;5046612;28;20201;-73
2021/04/08 05:14:59;;;;;;;6.00;3.00;;;1.10;99.90;;;;;;5049584;28;20209;-73
2021/04/08 05:17:26;;;;;;;4.82;2.85;;;1.20;99.90;;;;;;5049038;28;20213;-73
2021/04/08 05:19:52;;;;;;;3.70;3.03;;;1.20;99.90;;;;;;5048795;28;20258;-73
2021/04/08 05:22:18;;;;;;;3.40;3.03;;;1.20;99.90;;;;;;5046697;28;20197;-73
2021/04/08 05:24:44;;;;;;;7.95;2.97;;;1.20;99.90;;;;;;5048846;28;20646;-73
2021/04/08 05:27:12;;;;;;;2.97;2.60;;;1.30;99.90;;;;;;5049572;28;20205;-73
2021/04/08 05:29:38;;;;;;;5.60;2.95;;;1.20;99.90;;;;;;5048393;28;20683;-73
2021/04/08 05:32:04;;;;;;;5.88;2.55;;;1.30;99.90;;;;;;5047382;28;20209;-73
2021/04/08 05:34:31;;;;;;;3.30;2.63;;;1.20;99.90;;;;;;5048432;28;20676;-72
2021/04/08 05:36:57;;;;;;;3.33;2.65;;;1.20;99.90;;;;;;5049370;28;20211;-72
2021/04/08 05:39:23;;;;;;;2.83;2.50;;;1.20;99.90;;;;;;5048716;28;20723;-72
2021/04/08 05:41:49;;;;;;;4.45;2.40;;;1.30;99.90;;;;;;5048164;28;20565;-73
2021/04/08 05:44:16;;;;;;;4.60;2.50;;;1.30;99.90;;;;;;5047917;28;20564;-73
2021/04/08 05:46:43;;;;;;;5.85;2.60;;;1.40;99.90;;;;;;5039871;28;20587;-72
2021/04/08 05:49:09;;;;;;;4.68;2.33;;;1.50;99.90;;;;;;5048342;28;20236;-72
2021/04/08 05:51:35;;;;;;;3.22;2.70;;;1.40;99.90;;;;;;5048673;28;20201;-72
2021/04/08 05:54:01;;;;;;;3.15;2.40;;;1.50;99.90;;;;;;5047191;28;20300;-72
2021/04/08 05:56:28;;;;;;;3.85;2.85;;;1.60;99.90;;;;;;5049317;28;20296;-72
2021/04/08 05:58:54;;;;;;;8.15;3.25;;;1.70;99.90;;;;;;5038664;28;20220;-72
2021/04/08 06:01:21;;;;;;;2.92;2.55;;;1.70;99.90;;;;;;5039566;28;20201;-72
2021/04/08 06:03:48;;;;;;;5.93;2.60;;;1.90;99.90;;;;;;5045725;28;20224;-72
2021/04/08 06:06:14;;;;;;;7.18;3.40;;;2.00;99.90;;;;;;5048430;28;20201;-72
2021/04/08 06:08:41;;;;;;;7.68;3.47;;;2.00;99.90;;;;;;5046055;28;20618;-72
2021/04/08 06:11:07;;;;;;;5.90;3.30;;;2.10;99.90;;;;;;5048419;28;20201;-72
2021/04/08 06:13:33;;;;;;;3.87;3.20;;;2.20;99.90;;;;;;5045635;28;20456;-73
2021/04/08 06:15:59;;;;;;;5.43;3.15;;;2.30;99.90;;;;;;5048751;28;20554;-73
2021/04/08 06:18:26;;;;;;;5.55;3.70;;;2.50;99.90;;;;;;5046653;28;20248;-76
2021/04/08 06:20:53;;;;;;;4.28;3.42;;;2.60;99.90;;;;;;5048820;28;20296;-72
2021/04/08 06:23:19;;;;;;;4.65;2.80;;;2.70;99.90;;;;;;5046881;28;20197;-72
2021/04/08 06:25:45;;;;;;;5.57;3.40;;;2.70;99.90;;;;;;5048092;28;20221;-74
2021/04/08 06:28:11;;;;;;;5.03;3.75;;;2.80;99.90;;;;;;5048092;28;20718;-75
2021/04/08 06:30:38;;;;;;;4.35;3.03;;;2.80;99.90;;;;;;5047703;28;20201;-74
2021/04/08 06:33:05;;;;;;;7.80;3.30;;;2.90;99.90;;;;;;5046173;28;20205;-74
2021/04/08 06:35:32;;;;;;;3.13;2.65;;;2.90;99.90;;;;;;5047869;28;20231;-72
2021/04/08 06:37:58;;;;;;;5.93;4.00;;;3.00;99.90;;;;;;5047651;28;20232;-74
2021/04/08 06:40:25;;;;;;;5.18;3.30;;;3.10;99.40;;;;;;5048020;28;20201;-72
2021/04/08 06:42:53;;;;;;;4.28;3.40;;;3.10;99.90;;;;;;5045623;28;20207;-72
2021/04/08 06:45:22;;;;;;;4.57;3.40;;;3.10;99.90;;;;;;5048360;28;20216;-73
2021/04/08 06:47:54;;;;;;;5.32;3.20;;;3.20;99.90;;;;;;5048181;28;20235;-71
2021/04/08 06:50:23;;;;;;;4.70;3.70;;;3.40;99.80;;;;;;5047852;28;20205;-71
2021/04/08 06:52:51;;;;;;;6.00;4.28;;;3.40;98.30;;;;;;5046000;28;20618;-72
2021/04/08 06:55:19;;;;;;;5.18;4.68;;;3.50;98.10;;;;;;5047799;28;20588;-73
2021/04/08 06:57:45;;;;;;;5.68;4.13;;;3.50;98.30;;;;;;5056523;28;20232;-73
2021/04/08 07:00:13;;;;;;;5.10;4.60;;;3.70;97.80;;;;;;5047746;28;20232;-72
2021/04/08 07:02:40;;;;;;;8.98;4.72;;;3.80;97.40;;;;;;5047171;28;20208;-73
2021/04/08 07:05:07;;;;;;;4.70;4.13;;;4.00;97.30;;;;;;5047222;28;20197;-73
2021/04/08 07:07:34;;;;;;;6.85;3.88;;;4.00;97.80;;;;;;5047744;28;20228;-74
2021/04/08 07:10:01;;;;;;;4.38;3.90;;;4.20;97.30;;;;;;5047040;28;20212;-74
2021/04/08 07:12:28;;;;;;;6.65;3.50;;;4.20;95.70;;;;;;5046207;28;20559;-72
2021/04/08 07:14:55;;;;;;;5.30;3.85;;;4.30;95.50;;;;;;5047496;28;20701;-71
2021/04/08 07:17:21;;;;;;;4.88;3.45;;;4.30;95.40;;;;;;5047652;28;20201;-72
2021/04/08 07:19:48;;;;;;;4.45;3.28;;;4.30;95.40;;;;;;5046965;28;20200;-72
2021/04/08 07:22:14;;;;;;;4.53;2.72;;;4.50;95.40;;;;;;5046279;28;20212;-72
2021/04/08 07:24:42;;;;;;;4.38;2.90;;;4.60;95.30;;;;;;5047918;28;20208;-73
2021/04/08 07:27:15;;;;;;;4.18;3.22;;;4.90;95.20;;;;;;5047033;28;20201;-72
2021/04/08 07:29:47;;;;;;;4.90;2.70;;;5.20;94.20;;;;;;5047314;28;20217;-73
2021/04/08 07:32:15;;;;;;;3.05;2.50;;;5.30;93.60;;;;;;5051517;28;20205;-76
2021/04/08 07:34:43;;;;;;;5.03;2.85;;;5.40;93.00;;;;;;5061350;28;20207;-72
2021/04/08 07:37:10;;;;;;;8.98;3.38;;;5.30;93.10;;;;;;5068657;28;20210;-72
2021/04/08 07:39:38;;;;;;;5.65;3.20;;;5.30;93.50;;;;;;5067188;28;20195;-74
2021/04/08 07:42:07;;;;;;;3.53;3.22;;;5.30;93.70;;;;;;5068386;28;20622;-73
2021/04/08 07:44:48;;;;;;;5.10;3.10;;;5.40;93.60;;;;;;5067459;28;20594;-72
2021/04/08 07:47:26;;;;;;;4.93;3.38;;;5.50;93.70;;;;;;5068046;28;20196;-74
2021/04/08 07:49:54;;;;;;;5.45;2.90;;;5.40;92.30;;;;;;5067780;28;20552;-71
2021/04/08 07:52:27;;;;;;;4.70;3.60;;;5.30;92.60;;;;;;5061741;28;20314;-71
2021/04/08 07:55:08;;;;;;;4.50;3.22;;;5.20;92.30;;;;;;5048044;28;20549;-73
2021/04/08 07:57:51;;;;;;;7.97;3.88;;;5.20;93.30;;;;;;5047540;28;21032;-72
2021/04/08 08:00:21;;;;;;;5.30;3.58;;;5.20;93.20;;;;;;5047952;28;20197;-72
2021/04/08 08:02:47;;;;;;;5.82;3.67;;;5.20;92.90;;;;;;5047916;28;20626;-71
2021/04/08 08:05:21;;;;;;;4.47;3.47;;;5.40;92.40;;;;;;5048119;28;20205;-73
2021/04/08 08:07:47;;;;;;;4.93;3.05;;;5.60;91.60;;;;;;5048128;28;20254;-71
2021/04/08 08:10:19;;;;;;;6.70;4.18;;;5.90;91.30;;;;;;5047338;28;20211;-71
2021/04/08 08:12:46;;;;;;;4.07;3.53;;;6.20;90.80;;;;;;5047793;28;20213;-71
2021/04/08 08:15:19;;;;;;;5.32;4.07;;;6.40;90.50;;;;;;5048423;28;20215;-71
2021/04/08 08:17:46;;;;;;;9.35;4.60;;;6.70;88.50;;;;;;5047531;28;20231;-72
2021/04/08 08:20:14;;;;;;;9.63;3.83;;;6.90;89.00;;;;;;5047774;28;20629;-72
2021/04/08 08:22:42;;;;;;;8.40;4.50;;;7.00;89.80;;;;;;5047203;28;20201;-71
2021/04/08 08:25:10;;;;;;;4.07;3.15;;;7.20;88.10;;;;;;5047680;28;20204;-71
2021/04/08 08:27:41;;;;;;;6.32;3.80;;;7.30;85.70;;;;;;5047521;28;20228;-71
2021/04/08 08:30:10;;;;;;;5.55;4.13;;;7.10;83.20;;;;;;5047777;28;20255;-75
2021/04/08 08:32:37;;;;;;;4.82;3.60;;;6.80;86.10;;;;;;5047458;28;20574;-73
2021/04/08 08:35:04;;;;;;;4.10;3.70;;;6.70;87.50;;;;;;5047553;28;20212;-71
2021/04/08 08:37:32;;;;;;;9.65;4.30;;;6.90;86.30;;;;;;5047707;28;20221;-71
2021/04/08 08:39:58;;;;;;;4.93;4.00;;;6.90;83.60;;;;;;5047023;28;20251;-72
2021/04/08 08:42:26;;;;;;;7.15;3.72;;;6.90;83.50;;;;;;5047651;28;20201;-71
2021/04/08 08:44:53;;;;;;;4.28;3.63;;;7.10;82.60;;;;;;5047343;28;20208;-71
2021/04/08 08:47:23;;;;;;;5.18;3.72;;;7.30;82.10;;;;;;5047445;28;20220;-72
2021/04/08 08:49:52;;;;;;;5.68;3.95;;;7.40;80.60;;;;;;5046817;28;20311;-73
2021/04/08 08:52:21;;;;;;;4.38;3.97;;;7.40;80.10;;;;;;5047806;28;20201;-71
2021/04/08 08:54:48;;;;;;;5.95;3.85;;;7.20;81.50;;;;;;5047891;28;20703;-72
2021/04/08 08:57:17;;;;;;;6.55;3.60;;;7.30;83.30;;;;;;5048500;28;20300;-73
2021/04/08 08:59:44;;;;;;;4.72;3.70;;;7.50;83.50;;;;;;5050008;28;20397;-71
2021/04/08 09:02:11;;;;;;;4.80;3.55;;;7.70;81.30;;;;;;5051320;28;20730;-72
2021/04/08 09:04:38;;;;;;;3.92;3.63;;;8.00;79.00;;;;;;5050916;28;20288;-73
2021/04/08 09:07:08;;;;;;;3.40;3.10;;;8.40;76.50;;;;;;5051391;28;20223;-73
2021/04/08 09:09:36;;;;;;;6.30;3.13;;;8.80;76.80;;;;;;5048366;28;20605;-73
2021/04/08 09:12:08;;;;;;;3.83;3.10;;;9.40;73.30;;;;;;5050678;28;20229;-72
2021/04/08 09:14:34;;;;;;;4.45;3.40;;;10.30;69.80;;;;;;5050602;28;20205;-72
2021/04/08 09:17:01;;;;;;;3.55;3.25;;;10.60;68.10;;;;;;5050645;28;20197;-72
2021/04/08 09:19:29;;;;;;;4.95;2.90;;;11.10;67.30;;;;;;5050174;28;20600;-73
2021/04/08 09:21:58;;;;;;;3.40;2.70;;;10.20;66.90;;;;;;5050806;28;20687;-71
2021/04/08 09:24:36;;;;;;;3.28;2.95;;;9.40;69.90;;;;;;5050622;28;20613;-71
2021/04/08 09:27:03;;;;;;;3.75;3.00;;;8.80;71.20;;;;;;5050048;28;20205;-71
2021/04/08 09:29:55;;;;;;;3.50;2.85;;;8.00;71.70;;;;;;5049548;28;20740;-72
2021/04/08 09:32:27;;;;;;;4.05;2.92;;;7.60;74.10;;;;;;5051046;28;20212;-71
2021/04/08 09:35:19;;;;;;;4.57;2.90;;;7.10;75.40;;;;;;5050623;28;20205;-71
2021/04/08 09:38:14;;;;;;;3.60;3.28;;;6.70;74.60;;;;;;5029953;28;20234;-71
2021/04/08 09:41:05;;;;;;;4.55;3.10;;;6.10;76.90;;;;;;5030457;28;20525;-71
2021/04/08 09:43:32;;;;;;;4.57;3.05;;;5.70;77.80;;;;;;5030019;28;20213;-71
2021/04/08 09:46:05;;;;;;;3.65;3.20;;;5.80;78.60;;;;;;5030767;28;20209;-72
2021/04/08 09:48:52;;;;;;;5.63;3.20;;;5.80;79.30;;;;;;5029310;28;20283;-71
2021/04/08 09:51:31;;;;;;;3.97;3.17;;;5.60;78.60;;;;;;5030323;28;20677;-71
2021/04/08 09:53:59;;;;;;;4.10;2.80;;;5.60;79.40;;;;;;5030554;28;20209;-72
2021/04/08 09:56:42;;;;;;;5.35;3.67;;;5.40;78.80;;;;;;5030331;28;20317;-72
2021/04/08 09:59:09;;;;;;;5.35;3.05;;;5.40;79.70;;;;;;5029819;28;20707;-71
2021/04/08 10:01:35;;;;;;;7.10;3.58;;;5.50;79.60;;;;;;5035212;28;20207;-72
2021/04/08 10:04:14;;;;;;;3.50;3.03;;;5.50;78.70;;;;;;5050458;28;20270;-72
2021/04/08 10:06:41;;;;;;;4.90;3.20;;;5.50;79.90;;;;;;5049420;28;20208;-72
2021/04/08 10:09:08;;;;;;;6.88;3.30;;;5.60;80.70;;;;;;5048877;28;20224;-71
2021/04/08 10:11:35;;;;;;;7.13;3.25;;;5.70;80.10;;;;;;5049557;28;20621;-73
2021/04/08 10:14:15;;;;;;;3.95;3.22;;;5.80;79.90;;;;;;5049583;28;20576;-72
2021/04/08 10:16:42;;;;;;;3.38;3.08;;;5.90;81.50;;;;;;5049324;28;20232;-71
2021/04/08 10:19:08;;;;;;;5.50;3.35;;;6.00;81.20;;;;;;5049333;28;20244;-71
2021/04/08 10:21:34;;;;;;;7.05;3.83;;;6.20;81.20;;;;;;5049176;28;20668;-71
2021/04/08 10:24:00;;;;;;;3.55;3.00;;;6.20;80.40;;;;;;5049440;28;20757;-70
2021/04/08 10:28:57;;;;;;;3.42;3.13;;;6.30;83.20;;;;;;5081276;28;20232;-72
2021/04/08 10:31:27;;;;;;;4.40;2.58;;;6.30;82.40;;;;;;5089870;28;20196;-72
2021/04/08 10:33:55;;;;;;;5.05;3.40;;;6.30;81.10;;;;;;5089362;28;20203;-72
2021/04/08 10:36:28;;;;;;;3.92;2.97;;;6.20;80.80;;;;;;5089961;28;20207;-72
2021/04/08 10:39:06;;;;;;;4.55;2.67;;;6.20;80.40;;;;;;5088824;28;20226;-72
2021/04/08 10:41:33;;;;;;;3.75;2.95;;;6.10;80.90;;;;;;5089467;28;20204;-71
2021/04/08 10:44:23;;;;;;;3.53;3.08;;;6.30;83.40;;;;;;5089246;28;20204;-72
2021/04/08 10:46:51;;;;;;;3.72;3.35;;;7.60;81.00;;;;;;5089149;28;20250;-72
2021/04/08 10:49:19;;;;;;;3.35;3.03;;;8.30;78.20;;;;;;5088741;28;20238;-72
2021/04/08 10:51:46;;;;;;;3.40;2.65;;;9.50;77.00;;;;;;5088657;28;20268;-72
2021/04/08 10:54:13;;;;;;;5.05;3.10;;;10.70;73.00;;;;;;5088902;28;20230;-72
2021/04/08 10:56:39;;;;;;;3.17;2.88;;;11.70;69.70;;;;;;5089240;28;20200;-72
2021/04/08 10:59:16;;;;;;;6.22;3.63;;;12.40;69.20;;;;;;5087924;28;20234;-70
2021/04/08 11:01:42;;;;;;;5.72;3.10;;;13.10;63.90;;;;;;5096774;28;20749;-71
2021/04/08 11:04:09;;;;;;;8.35;3.67;;;14.00;64.30;;;;;;5109355;28;20203;-71
2021/04/08 11:06:35;;;;;;;4.88;3.35;;;15.10;62.50;;;;;;5109628;28;20237;-71
2021/04/08 11:09:02;;;;;;;3.65;2.90;;;15.80;62.40;;;;;;5108758;28;20219;-71
2021/04/08 11:11:28;;;;;;;4.13;3.73;;;15.70;57.40;;;;;;5109657;28;20210;-71
2021/04/08 11:13:54;;;;;;;4.25;3.40;;;14.50;56.80;;;;;;5109422;28;20459;-72
2021/04/08 11:16:21;;;;;;;5.45;2.97;;;13.30;60.00;;;;;;5109364;28;20248;-72
2021/04/08 11:18:48;;;;;;;4.85;3.67;;;12.90;59.10;;;;;;5108191;28;20774;-73
2021/04/08 11:21:15;;;;;;;4.38;3.05;;;12.40;59.80;;;;;;5109181;28;20214;-73
2021/04/08 11:23:41;;;;;;;5.10;3.35;;;11.60;59.60;;;;;;5109196;28;20251;-72
2021/04/08 11:26:09;;;;;;;5.28;3.00;;;10.50;60.60;;;;;;5109277;28;20268;-72
2021/04/08 11:28:41;;;;;;;6.70;3.20;;;9.70;64.90;;;;;;5102505;28;20258;-73
2021/04/08 11:31:17;;;;;;;4.10;3.53;;;9.50;66.30;;;;;;5089055;28;20199;-73
2021/04/08 11:33:44;;;;;;;3.80;3.05;;;9.30;67.10;;;;;;5088273;28;20605;-72
2021/04/08 11:36:18;;;;;;;5.15;2.85;;;9.10;65.90;;;;;;5088971;28;20204;-72
2021/04/08 11:38:46;;;;;;;4.35;3.22;;;8.90;66.90;;;;;;5087782;28;20232;-73
2021/04/08 11:41:12;;;;;;;6.90;2.92;;;8.80;69.10;;;;;;5088387;28;20229;-73
2021/04/08 11:43:50;;;;;;;3.90;3.03;;;8.90;69.40;;;;;;5088347;28;20206;-73
2021/04/08 11:46:28;;;;;;;4.57;2.78;;;9.10;70.10;;;;;;5088686;28;20210;-73
2021/04/08 11:48:55;;;;;;;4.30;3.17;;;9.30;69.20;;;;;;5087471;28;20588;-72
2021/04/08 11:51:24;;;;;;;8.88;3.67;;;9.10;67.70;;;;;;5088605;28;20598;-72
2021/04/08 11:53:51;;;;;;;6.32;3.10;;;9.00;68.30;;;;;;5087399;28;20203;-73
2021/04/08 11:56:32;;;;;;;4.07;3.25;;;8.80;69.50;;;;;;5088826;28;20196;-72
2021/04/08 11:59:13;;;;;;;3.78;2.78;;;8.50;70.80;;;;;;5087666;28;20223;-72
2021/04/08 12:01:41;;;;;;;3.60;2.92;;;8.10;71.00;;;;;;5088448;28;20392;-73
2021/04/08 12:04:13;;;;;;;3.45;3.15;;;8.00;70.00;;;;;;5088661;28;20652;-73
2021/04/08 12:06:45;;;;;;;3.72;3.35;;;8.10;71.40;;;;;;5087730;28;20297;-71
2021/04/08 12:09:11;;;;;;;3.22;2.92;;;8.10;71.70;;;;;;5087485;28;20224;-72
2021/04/08 12:11:49;;;;;;;4.30;2.92;;;8.20;70.80;;;;;;5088520;28;20211;-73
2021/04/08 12:14:15;;;;;;;3.92;3.13;;;8.30;72.50;;;;;;5088548;28;20210;-72
2021/04/08 12:16:41;;;;;;;3.60;2.65;;;8.50;72.50;;;;;;5088039;28;20203;-72
2021/04/08 12:19:08;;;;;;;4.25;3.15;;;8.70;71.80;;;;;;5087532;28;20709;-72
2021/04/08 12:21:34;;;;;;;5.50;3.30;;;8.70;72.30;;;;;;5085794;28;20693;-70
2021/04/08 12:24:09;;;;;;;3.83;2.40;;;8.80;71.40;;;;;;5087933;28;20199;-70
2021/04/08 12:26:38;;;;;;;4.18;3.65;;;8.80;69.00;;;;;;5087675;28;20199;-72
2021/04/08 12:29:05;;;;;;;4.50;3.08;;;8.90;69.80;;;;;;5087337;28;20231;-72
2021/04/08 12:31:31;;;;;;;4.55;3.00;;;9.00;71.40;;;;;;5089721;28;20192;-72
2021/04/08 12:33:57;;;;;;;4.55;3.20;;;9.30;70.10;;;;;;5091540;28;20208;-72
2021/04/08 12:36:23;;;;;;;4.15;3.10;;;9.90;66.00;;;;;;5092183;28;20725;-72
2021/04/08 12:38:50;;;;;;;3.03;2.72;;;10.60;66.30;;;;;;5090691;28;20584;-72
2021/04/08 12:41:17;;;;;;;5.15;3.30;;;11.70;65.20;;;;;;5092333;28;20211;-72
2021/04/08 12:43:43;;;;;;;4.65;3.28;;;11.90;62.60;;;;;;5090975;28;20245;-72
2021/04/08 12:46:09;;;;;;;3.58;3.05;;;11.70;61.20;;;;;;5091680;28;20203;-72
2021/04/08 12:48:35;;;;;;;3.13;2.55;;;11.30;60.60;;;;;;5091261;28;20220;-72
2021/04/08 12:51:01;;;;;;;4.20;3.28;;;10.90;61.20;;;;;;5091583;28;20207;-72
2021/04/08 12:53:29;;;;;;;3.50;2.83;;;10.70;60.20;;;;;;5091698;28;20204;-72
2021/04/08 12:55:56;;;;;;;4.05;2.70;;;10.90;60.00;;;;;;5090757;28;20216;-72
2021/04/08 12:58:24;;;;;;;4.30;2.72;;;11.10;60.40;;;;;;5090714;28;20228;-71
2021/04/08 13:00:51;;;;;;;4.13;3.10;;;10.70;62.30;;;;;;5087737;28;20223;-73
2021/04/08 13:03:17;;;;;;;3.58;2.95;;;10.60;62.10;;;;;;5091493;28;20207;-72
2021/04/08 13:05:44;;;;;;;7.00;3.30;;;10.60;64.00;;;;;;5091170;28;20200;-72